sensor_id;sensor_type;location;lat;lon;timestamp;P1;durP1;ratioP1;P2;durP2;ratioP2
4027;SDS011;2028;51.346;12.396;2023-06-22T00:01:58;10.20;;;9.40;;
4027;SDS011;2028;51.346;12.396;2023-06-22T00:04:24;10.30;;;9.47;;
4027;SDS011;2028;51.346;12.396;2023-06-22T00:06:51;10.13;;;9.23;;
4027;SDS011;2028;51.346;12.396;2023-06-22T00:09:17;10.57;;;9.57;;
4027;SDS011;2028;51.346;12.396;2023-06-22T00:11:44;10.20;;;9.30;;
4027;SDS011;2028;51.346;12.396;2023-06-22T00:14:11;11.17;;;10.03;;
4027;SDS011;2028;51.346;12.396;2023-06-22T00:16:37;10.43;;;9.53;;
4027;SDS011;2028;51.346;12.396;2023-06-22T00:19:04;10.30;;;9.37;;
4027;SDS011;2028;51.346;12.396;2023-06-22T00:21:30;10.10;;;9.20;;
4027;SDS011;2028;51.346;12.396;2023-06-22T00:23:57;11.43;;;10.43;;
4027;SDS011;2028;51.346;12.396;2023-06-22T00:26:23;11.50;;;10.30;;
4027;SDS011;2028;51.346;12.396;2023-06-22T00:28:50;9.90;;;9.10;;
4027;SDS011;2028;51.346;12.396;2023-06-22T00:31:17;11.47;;;10.47;;
4027;SDS011;2028;51.346;12.396;2023-06-22T00:33:43;11.83;;;10.83;;
4027;SDS011;2028;51.346;12.396;2023-06-22T00:36:09;11.07;;;9.77;;
4027;SDS011;2028;51.346;12.396;2023-06-22T00:38:38;10.57;;;9.67;;
4027;SDS011;2028;51.346;12.396;2023-06-22T00:41:05;10.23;;;9.33;;
4027;SDS011;2028;51.346;12.396;2023-06-22T00:43:32;12.23;;;11.20;;
4027;SDS011;2028;51.346;12.396;2023-06-22T00:45:58;12.07;;;11.07;;
4027;SDS011;2028;51.346;12.396;2023-06-22T00:48:25;12.57;;;10.97;;
4027;SDS011;2028;51.346;12.396;2023-06-22T00:50:51;12.43;;;11.23;;
4027;SDS011;2028;51.346;12.396;2023-06-22T00:53:19;12.17;;;10.90;;
4027;SDS011;2028;51.346;12.396;2023-06-22T00:55:45;12.27;;;11.07;;
4027;SDS011;2028;51.346;12.396;2023-06-22T00:58:12;12.07;;;10.87;;
4027;SDS011;2028;51.346;12.396;2023-06-22T01:00:39;12.10;;;10.93;;
4027;SDS011;2028;51.346;12.396;2023-06-22T01:03:06;12.47;;;11.30;;
4027;SDS011;2028;51.346;12.396;2023-06-22T01:05:36;11.90;;;10.90;;
4027;SDS011;2028;51.346;12.396;2023-06-22T01:10:46;12.60;;;11.50;;
4027;SDS011;2028;51.346;12.396;2023-06-22T01:13:16;11.57;;;10.60;;
4027;SDS011;2028;51.346;12.396;2023-06-22T01:15:45;11.90;;;10.80;;
4027;SDS011;2028;51.346;12.396;2023-06-22T01:18:14;11.23;;;10.13;;
4027;SDS011;2028;51.346;12.396;2023-06-22T01:20:42;12.23;;;11.13;;
4027;SDS011;2028;51.346;12.396;2023-06-22T01:23:10;12.80;;;11.60;;
4027;SDS011;2028;51.346;12.396;2023-06-22T01:25:46;12.07;;;11.07;;
4027;SDS011;2028;51.346;12.396;2023-06-22T01:30:58;13.10;;;11.83;;
4027;SDS011;2028;51.346;12.396;2023-06-22T01:33:33;12.30;;;11.30;;
4027;SDS011;2028;51.346;12.396;2023-06-22T01:36:00;11.10;;;10.07;;
4027;SDS011;2028;51.346;12.396;2023-06-22T01:38:28;13.90;;;11.60;;
4027;SDS011;2028;51.346;12.396;2023-06-22T01:40:56;12.83;;;11.53;;
4027;SDS011;2028;51.346;12.396;2023-06-22T01:43:23;12.43;;;11.27;;
4027;SDS011;2028;51.346;12.396;2023-06-22T01:45:50;14.03;;;12.73;;
4027;SDS011;2028;51.346;12.396;2023-06-22T01:48:17;12.93;;;11.77;;
4027;SDS011;2028;51.346;12.396;2023-06-22T01:50:44;12.27;;;11.17;;
4027;SDS011;2028;51.346;12.396;2023-06-22T01:53:10;13.40;;;12.20;;
4027;SDS011;2028;51.346;12.396;2023-06-22T01:55:37;12.47;;;11.47;;
4027;SDS011;2028;51.346;12.396;2023-06-22T01:58:03;12.63;;;11.47;;
4027;SDS011;2028;51.346;12.396;2023-06-22T02:00:31;13.70;;;12.50;;
4027;SDS011;2028;51.346;12.396;2023-06-22T02:03:03;13.50;;;12.30;;
4027;SDS011;2028;51.346;12.396;2023-06-22T02:05:34;13.10;;;11.90;;
4027;SDS011;2028;51.346;12.396;2023-06-22T02:08:11;14.20;;;13.00;;
4027;SDS011;2028;51.346;12.396;2023-06-22T02:10:38;13.83;;;12.53;;
4027;SDS011;2028;51.346;12.396;2023-06-22T02:13:09;14.80;;;13.50;;
4027;SDS011;2028;51.346;12.396;2023-06-22T02:15:36;14.43;;;13.03;;
4027;SDS011;2028;51.346;12.396;2023-06-22T02:18:03;14.23;;;13.03;;
4027;SDS011;2028;51.346;12.396;2023-06-22T02:20:30;12.97;;;11.87;;
4027;SDS011;2028;51.346;12.396;2023-06-22T02:22:57;12.33;;;10.93;;
4027;SDS011;2028;51.346;12.396;2023-06-22T02:25:23;14.00;;;12.30;;
4027;SDS011;2028;51.346;12.396;2023-06-22T02:27:49;13.27;;;12.03;;
4027;SDS011;2028;51.346;12.396;2023-06-22T02:30:16;13.50;;;12.27;;
4027;SDS011;2028;51.346;12.396;2023-06-22T02:32:42;14.10;;;12.90;;
4027;SDS011;2028;51.346;12.396;2023-06-22T02:35:09;14.60;;;13.23;;
4027;SDS011;2028;51.346;12.396;2023-06-22T02:37:36;14.27;;;12.87;;
4027;SDS011;2028;51.346;12.396;2023-06-22T02:40:05;13.17;;;12.03;;
4027;SDS011;2028;51.346;12.396;2023-06-22T02:42:33;14.63;;;13.13;;
4027;SDS011;2028;51.346;12.396;2023-06-22T02:44:59;14.00;;;12.60;;
4027;SDS011;2028;51.346;12.396;2023-06-22T02:47:26;14.53;;;13.03;;
4027;SDS011;2028;51.346;12.396;2023-06-22T02:49:52;14.60;;;13.13;;
4027;SDS011;2028;51.346;12.396;2023-06-22T02:52:19;14.43;;;13.00;;
4027;SDS011;2028;51.346;12.396;2023-06-22T02:54:45;14.47;;;13.13;;
4027;SDS011;2028;51.346;12.396;2023-06-22T02:57:11;13.53;;;12.23;;
4027;SDS011;2028;51.346;12.396;2023-06-22T02:59:39;14.83;;;13.43;;
4027;SDS011;2028;51.346;12.396;2023-06-22T03:02:07;15.63;;;14.13;;
4027;SDS011;2028;51.346;12.396;2023-06-22T03:04:34;14.53;;;13.03;;
4027;SDS011;2028;51.346;12.396;2023-06-22T03:07:01;16.00;;;14.50;;
4027;SDS011;2028;51.346;12.396;2023-06-22T03:09:28;15.17;;;13.90;;
4027;SDS011;2028;51.346;12.396;2023-06-22T03:11:55;16.17;;;14.63;;
4027;SDS011;2028;51.346;12.396;2023-06-22T03:14:21;16.23;;;14.73;;
4027;SDS011;2028;51.346;12.396;2023-06-22T03:16:47;15.90;;;14.40;;
4027;SDS011;2028;51.346;12.396;2023-06-22T03:19:13;16.10;;;14.63;;
4027;SDS011;2028;51.346;12.396;2023-06-22T03:21:40;15.30;;;13.90;;
4027;SDS011;2028;51.346;12.396;2023-06-22T03:24:06;15.23;;;13.93;;
4027;SDS011;2028;51.346;12.396;2023-06-22T03:26:33;16.53;;;14.87;;
4027;SDS011;2028;51.346;12.396;2023-06-22T03:29:00;15.50;;;14.10;;
4027;SDS011;2028;51.346;12.396;2023-06-22T03:31:26;17.30;;;15.70;;
4027;SDS011;2028;51.346;12.396;2023-06-22T03:33:52;16.40;;;15.10;;
4027;SDS011;2028;51.346;12.396;2023-06-22T03:36:19;17.03;;;15.17;;
4027;SDS011;2028;51.346;12.396;2023-06-22T03:38:48;15.63;;;13.97;;
4027;SDS011;2028;51.346;12.396;2023-06-22T03:41:15;16.57;;;15.17;;
4027;SDS011;2028;51.346;12.396;2023-06-22T03:43:42;15.97;;;14.50;;
4027;SDS011;2028;51.346;12.396;2023-06-22T03:46:08;17.20;;;15.60;;
4027;SDS011;2028;51.346;12.396;2023-06-22T03:48:35;21.57;;;16.57;;
4027;SDS011;2028;51.346;12.396;2023-06-22T03:51:01;17.47;;;15.73;;
4027;SDS011;2028;51.346;12.396;2023-06-22T03:53:31;18.67;;;16.73;;
4027;SDS011;2028;51.346;12.396;2023-06-22T03:55:57;17.70;;;15.73;;
4027;SDS011;2028;51.346;12.396;2023-06-22T03:58:23;16.90;;;15.27;;
4027;SDS011;2028;51.346;12.396;2023-06-22T04:00:50;18.30;;;16.50;;
4027;SDS011;2028;51.346;12.396;2023-06-22T04:03:16;18.30;;;16.53;;
4027;SDS011;2028;51.346;12.396;2023-06-22T04:05:46;17.33;;;15.60;;
4027;SDS011;2028;51.346;12.396;2023-06-22T04:08:13;15.47;;;14.07;;
4027;SDS011;2028;51.346;12.396;2023-06-22T04:10:40;18.00;;;15.90;;
4027;SDS011;2028;51.346;12.396;2023-06-22T04:13:06;19.93;;;15.53;;
4027;SDS011;2028;51.346;12.396;2023-06-22T04:15:33;16.93;;;15.43;;
4027;SDS011;2028;51.346;12.396;2023-06-22T04:18:00;20.33;;;17.00;;
4027;SDS011;2028;51.346;12.396;2023-06-22T04:20:26;31.63;;;28.53;;
4027;SDS011;2028;51.346;12.396;2023-06-22T04:22:55;43.60;;;36.50;;
4027;SDS011;2028;51.346;12.396;2023-06-22T04:25:22;18.20;;;16.60;;
4027;SDS011;2028;51.346;12.396;2023-06-22T04:27:49;17.97;;;16.03;;
4027;SDS011;2028;51.346;12.396;2023-06-22T04:30:16;16.67;;;15.00;;
4027;SDS011;2028;51.346;12.396;2023-06-22T04:32:43;16.33;;;14.80;;
4027;SDS011;2028;51.346;12.396;2023-06-22T04:35:10;17.77;;;16.20;;
4027;SDS011;2028;51.346;12.396;2023-06-22T04:37:37;17.43;;;15.73;;
4027;SDS011;2028;51.346;12.396;2023-06-22T04:40:04;17.90;;;16.07;;
4027;SDS011;2028;51.346;12.396;2023-06-22T04:42:33;17.37;;;15.57;;
4027;SDS011;2028;51.346;12.396;2023-06-22T04:45:00;16.70;;;15.23;;
4027;SDS011;2028;51.346;12.396;2023-06-22T04:47:26;17.53;;;15.73;;
4027;SDS011;2028;51.346;12.396;2023-06-22T04:49:52;17.53;;;16.03;;
4027;SDS011;2028;51.346;12.396;2023-06-22T04:52:19;19.50;;;15.23;;
4027;SDS011;2028;51.346;12.396;2023-06-22T04:54:45;21.90;;;16.97;;
4027;SDS011;2028;51.346;12.396;2023-06-22T04:57:20;16.87;;;15.37;;
4027;SDS011;2028;51.346;12.396;2023-06-22T04:59:50;19.27;;;15.87;;
4027;SDS011;2028;51.346;12.396;2023-06-22T05:02:16;18.77;;;16.93;;
4027;SDS011;2028;51.346;12.396;2023-06-22T05:04:43;17.73;;;16.03;;
4027;SDS011;2028;51.346;12.396;2023-06-22T05:07:09;16.27;;;14.87;;
4027;SDS011;2028;51.346;12.396;2023-06-22T05:09:36;16.97;;;15.47;;
4027;SDS011;2028;51.346;12.396;2023-06-22T05:12:02;52.97;;;47.57;;
4027;SDS011;2028;51.346;12.396;2023-06-22T05:14:30;71.23;;;64.37;;
4027;SDS011;2028;51.346;12.396;2023-06-22T05:16:56;18.67;;;16.77;;
4027;SDS011;2028;51.346;12.396;2023-06-22T05:19:29;18.13;;;16.40;;
4027;SDS011;2028;51.346;12.396;2023-06-22T05:21:58;18.20;;;16.43;;
4027;SDS011;2028;51.346;12.396;2023-06-22T05:24:25;19.37;;;17.30;;
4027;SDS011;2028;51.346;12.396;2023-06-22T05:26:51;19.60;;;16.93;;
4027;SDS011;2028;51.346;12.396;2023-06-22T05:29:18;18.93;;;16.90;;
4027;SDS011;2028;51.346;12.396;2023-06-22T05:31:44;20.27;;;16.47;;
4027;SDS011;2028;51.346;12.396;2023-06-22T05:34:11;20.60;;;17.43;;
4027;SDS011;2028;51.346;12.396;2023-06-22T05:36:37;16.93;;;15.23;;
4027;SDS011;2028;51.346;12.396;2023-06-22T05:39:13;19.20;;;15.93;;
4027;SDS011;2028;51.346;12.396;2023-06-22T05:41:40;18.30;;;15.87;;
4027;SDS011;2028;51.346;12.396;2023-06-22T05:44:07;20.13;;;16.77;;
4027;SDS011;2028;51.346;12.396;2023-06-22T05:46:33;19.27;;;15.40;;
4027;SDS011;2028;51.346;12.396;2023-06-22T05:48:59;20.27;;;16.70;;
4027;SDS011;2028;51.346;12.396;2023-06-22T05:51:26;22.40;;;16.23;;
4027;SDS011;2028;51.346;12.396;2023-06-22T05:53:52;18.10;;;15.43;;
4027;SDS011;2028;51.346;12.396;2023-06-22T05:56:19;17.77;;;15.77;;
4027;SDS011;2028;51.346;12.396;2023-06-22T05:58:46;16.60;;;14.87;;
4027;SDS011;2028;51.346;12.396;2023-06-22T06:01:12;15.70;;;14.07;;
4027;SDS011;2028;51.346;12.396;2023-06-22T06:03:40;17.20;;;15.40;;
4027;SDS011;2028;51.346;12.396;2023-06-22T06:06:07;16.93;;;14.53;;
4027;SDS011;2028;51.346;12.396;2023-06-22T06:08:33;17.67;;;14.13;;
4027;SDS011;2028;51.346;12.396;2023-06-22T06:11:00;20.17;;;14.73;;
4027;SDS011;2028;51.346;12.396;2023-06-22T06:13:26;16.63;;;13.73;;
4027;SDS011;2028;51.346;12.396;2023-06-22T06:15:52;18.03;;;13.80;;
4027;SDS011;2028;51.346;12.396;2023-06-22T06:18:20;15.27;;;13.33;;
4027;SDS011;2028;51.346;12.396;2023-06-22T06:20:46;14.30;;;12.73;;
4027;SDS011;2028;51.346;12.396;2023-06-22T06:23:13;14.93;;;12.57;;
4027;SDS011;2028;51.346;12.396;2023-06-22T06:25:39;13.57;;;12.27;;
4027;SDS011;2028;51.346;12.396;2023-06-22T06:28:05;17.83;;;12.57;;
4027;SDS011;2028;51.346;12.396;2023-06-22T06:30:32;13.27;;;11.97;;
4027;SDS011;2028;51.346;12.396;2023-06-22T06:32:58;12.43;;;11.20;;
4027;SDS011;2028;51.346;12.396;2023-06-22T06:35:25;15.97;;;11.40;;
4027;SDS011;2028;51.346;12.396;2023-06-22T06:37:51;15.13;;;13.77;;
4027;SDS011;2028;51.346;12.396;2023-06-22T06:40:18;21.97;;;19.70;;
4027;SDS011;2028;51.346;12.396;2023-06-22T06:42:46;12.23;;;10.57;;
4027;SDS011;2028;51.346;12.396;2023-06-22T06:45:14;11.60;;;10.50;;
4027;SDS011;2028;51.346;12.396;2023-06-22T06:47:40;10.40;;;9.47;;
4027;SDS011;2028;51.346;12.396;2023-06-22T06:50:07;11.37;;;10.27;;
4027;SDS011;2028;51.346;12.396;2023-06-22T06:55:34;12.47;;;10.23;;
4027;SDS011;2028;51.346;12.396;2023-06-22T06:58:01;11.30;;;10.40;;
4027;SDS011;2028;51.346;12.396;2023-06-22T07:00:29;11.63;;;10.63;;
4027;SDS011;2028;51.346;12.396;2023-06-22T07:02:56;12.90;;;10.37;;
4027;SDS011;2028;51.346;12.396;2023-06-22T07:05:22;11.80;;;10.70;;
4027;SDS011;2028;51.346;12.396;2023-06-22T07:07:48;12.00;;;10.90;;
4027;SDS011;2028;51.346;12.396;2023-06-22T07:10:15;11.60;;;10.47;;
4027;SDS011;2028;51.346;12.396;2023-06-22T07:12:41;12.10;;;10.17;;
4027;SDS011;2028;51.346;12.396;2023-06-22T07:15:08;11.33;;;10.43;;
4027;SDS011;2028;51.346;12.396;2023-06-22T07:17:35;12.37;;;10.03;;
4027;SDS011;2028;51.346;12.396;2023-06-22T07:20:02;10.63;;;9.67;;
4027;SDS011;2028;51.346;12.396;2023-06-22T07:22:34;10.20;;;9.20;;
4027;SDS011;2028;51.346;12.396;2023-06-22T07:25:00;11.20;;;9.90;;
4027;SDS011;2028;51.346;12.396;2023-06-22T07:27:29;10.33;;;9.43;;
4027;SDS011;2028;51.346;12.396;2023-06-22T07:30:01;10.33;;;9.43;;
4027;SDS011;2028;51.346;12.396;2023-06-22T07:32:28;11.03;;;9.97;;
4027;SDS011;2028;51.346;12.396;2023-06-22T07:34:54;11.70;;;10.70;;
4027;SDS011;2028;51.346;12.396;2023-06-22T07:37:21;10.20;;;9.20;;
4027;SDS011;2028;51.346;12.396;2023-06-22T07:39:47;13.00;;;10.27;;
4027;SDS011;2028;51.346;12.396;2023-06-22T07:42:15;10.43;;;9.57;;
4027;SDS011;2028;51.346;12.396;2023-06-22T07:44:44;10.87;;;9.97;;
4027;SDS011;2028;51.346;12.396;2023-06-22T07:47:10;10.83;;;9.90;;
4027;SDS011;2028;51.346;12.396;2023-06-22T07:49:36;11.50;;;9.77;;
4027;SDS011;2028;51.346;12.396;2023-06-22T07:52:03;10.70;;;9.70;;
4027;SDS011;2028;51.346;12.396;2023-06-22T07:54:30;11.17;;;10.00;;
4027;SDS011;2028;51.346;12.396;2023-06-22T07:56:56;10.67;;;9.77;;
4027;SDS011;2028;51.346;12.396;2023-06-22T07:59:23;10.80;;;9.90;;
4027;SDS011;2028;51.346;12.396;2023-06-22T08:01:49;11.07;;;10.13;;
4027;SDS011;2028;51.346;12.396;2023-06-22T08:04:16;10.03;;;9.23;;
4027;SDS011;2028;51.346;12.396;2023-06-22T08:06:42;11.07;;;9.97;;
4027;SDS011;2028;51.346;12.396;2023-06-22T08:09:09;19.73;;;10.40;;
4027;SDS011;2028;51.346;12.396;2023-06-22T08:11:35;11.03;;;9.97;;
4027;SDS011;2028;51.346;12.396;2023-06-22T08:14:01;10.77;;;9.83;;
4027;SDS011;2028;51.346;12.396;2023-06-22T08:16:28;10.60;;;9.50;;
4027;SDS011;2028;51.346;12.396;2023-06-22T08:18:54;9.47;;;8.73;;
4027;SDS011;2028;51.346;12.396;2023-06-22T08:21:20;10.67;;;9.63;;
4027;SDS011;2028;51.346;12.396;2023-06-22T08:23:47;9.93;;;9.03;;
4027;SDS011;2028;51.346;12.396;2023-06-22T08:26:14;9.67;;;8.87;;
4027;SDS011;2028;51.346;12.396;2023-06-22T08:28:40;10.03;;;9.13;;
4027;SDS011;2028;51.346;12.396;2023-06-22T08:31:07;10.07;;;8.67;;
4027;SDS011;2028;51.346;12.396;2023-06-22T08:33:34;9.53;;;8.73;;
4027;SDS011;2028;51.346;12.396;2023-06-22T08:36:00;9.20;;;8.47;;
4027;SDS011;2028;51.346;12.396;2023-06-22T08:38:26;9.90;;;8.90;;
4027;SDS011;2028;51.346;12.396;2023-06-22T08:40:53;10.00;;;9.07;;
4027;SDS011;2028;51.346;12.396;2023-06-22T08:43:19;9.87;;;8.70;;
4027;SDS011;2028;51.346;12.396;2023-06-22T08:45:46;9.50;;;8.60;;
4027;SDS011;2028;51.346;12.396;2023-06-22T08:48:12;28.87;;;25.97;;
4027;SDS011;2028;51.346;12.396;2023-06-22T08:50:38;21.30;;;19.40;;
4027;SDS011;2028;51.346;12.396;2023-06-22T08:53:06;9.70;;;8.73;;
4027;SDS011;2028;51.346;12.396;2023-06-22T08:55:33;9.17;;;8.47;;
4027;SDS011;2028;51.346;12.396;2023-06-22T08:57:59;9.27;;;8.37;;
4027;SDS011;2028;51.346;12.396;2023-06-22T09:00:25;9.77;;;8.87;;
4027;SDS011;2028;51.346;12.396;2023-06-22T09:02:54;9.70;;;8.83;;
4027;SDS011;2028;51.346;12.396;2023-06-22T09:05:24;9.90;;;8.87;;
4027;SDS011;2028;51.346;12.396;2023-06-22T09:07:51;8.93;;;8.23;;
4027;SDS011;2028;51.346;12.396;2023-06-22T09:10:20;8.67;;;7.97;;
4027;SDS011;2028;51.346;12.396;2023-06-22T09:12:49;11.60;;;9.07;;
4027;SDS011;2028;51.346;12.396;2023-06-22T09:15:16;8.57;;;7.77;;
4027;SDS011;2028;51.346;12.396;2023-06-22T09:17:42;8.93;;;8.00;;
4027;SDS011;2028;51.346;12.396;2023-06-22T09:20:12;9.03;;;8.23;;
4027;SDS011;2028;51.346;12.396;2023-06-22T09:22:38;9.93;;;8.13;;
4027;SDS011;2028;51.346;12.396;2023-06-22T09:25:04;9.13;;;7.63;;
4027;SDS011;2028;51.346;12.396;2023-06-22T09:27:31;8.30;;;7.50;;
4027;SDS011;2028;51.346;12.396;2023-06-22T09:29:57;7.87;;;7.03;;
4027;SDS011;2028;51.346;12.396;2023-06-22T09:32:27;8.60;;;7.30;;
4027;SDS011;2028;51.346;12.396;2023-06-22T09:34:53;8.77;;;7.97;;
4027;SDS011;2028;51.346;12.396;2023-06-22T09:37:19;8.00;;;7.33;;
4027;SDS011;2028;51.346;12.396;2023-06-22T09:39:46;7.50;;;6.90;;
4027;SDS011;2028;51.346;12.396;2023-06-22T09:42:12;8.47;;;7.73;;
4027;SDS011;2028;51.346;12.396;2023-06-22T09:44:39;8.77;;;7.97;;
4027;SDS011;2028;51.346;12.396;2023-06-22T09:47:05;10.80;;;9.80;;
4027;SDS011;2028;51.346;12.396;2023-06-22T09:49:32;9.70;;;7.70;;
4027;SDS011;2028;51.346;12.396;2023-06-22T09:51:58;7.20;;;6.60;;
4027;SDS011;2028;51.346;12.396;2023-06-22T09:54:25;7.77;;;6.97;;
4027;SDS011;2028;51.346;12.396;2023-06-22T09:56:52;8.13;;;7.33;;
4027;SDS011;2028;51.346;12.396;2023-06-22T09:59:18;7.77;;;7.13;;
4027;SDS011;2028;51.346;12.396;2023-06-22T10:01:44;7.30;;;6.73;;
4027;SDS011;2028;51.346;12.396;2023-06-22T10:04:11;7.67;;;7.03;;
4027;SDS011;2028;51.346;12.396;2023-06-22T10:06:37;7.43;;;6.83;;
4027;SDS011;2028;51.346;12.396;2023-06-22T10:09:06;7.90;;;7.30;;
4027;SDS011;2028;51.346;12.396;2023-06-22T10:11:33;8.03;;;7.33;;
4027;SDS011;2028;51.346;12.396;2023-06-22T10:14:00;7.80;;;7.10;;
4027;SDS011;2028;51.346;12.396;2023-06-22T10:16:30;7.03;;;6.43;;
4027;SDS011;2028;51.346;12.396;2023-06-22T10:18:57;7.23;;;6.63;;
4027;SDS011;2028;51.346;12.396;2023-06-22T10:21:23;6.93;;;6.17;;
4027;SDS011;2028;51.346;12.396;2023-06-22T10:23:51;6.50;;;6.00;;
4027;SDS011;2028;51.346;12.396;2023-06-22T10:26:18;7.20;;;6.70;;
4027;SDS011;2028;51.346;12.396;2023-06-22T10:28:44;7.50;;;6.90;;
4027;SDS011;2028;51.346;12.396;2023-06-22T10:31:10;7.07;;;6.47;;
4027;SDS011;2028;51.346;12.396;2023-06-22T10:33:37;7.27;;;6.67;;
4027;SDS011;2028;51.346;12.396;2023-06-22T10:36:03;7.60;;;6.73;;
4027;SDS011;2028;51.346;12.396;2023-06-22T10:38:30;7.40;;;6.80;;
4027;SDS011;2028;51.346;12.396;2023-06-22T10:40:56;7.73;;;7.13;;
4027;SDS011;2028;51.346;12.396;2023-06-22T10:43:22;7.50;;;6.73;;
4027;SDS011;2028;51.346;12.396;2023-06-22T10:45:49;8.60;;;7.53;;
4027;SDS011;2028;51.346;12.396;2023-06-22T10:48:15;7.50;;;6.60;;
4027;SDS011;2028;51.346;12.396;2023-06-22T10:50:42;8.47;;;6.80;;
4027;SDS011;2028;51.346;12.396;2023-06-22T10:53:08;7.50;;;6.83;;
4027;SDS011;2028;51.346;12.396;2023-06-22T10:55:34;7.70;;;6.97;;
4027;SDS011;2028;51.346;12.396;2023-06-22T10:58:01;23.43;;;21.33;;
4027;SDS011;2028;51.346;12.396;2023-06-22T11:00:27;7.30;;;6.70;;
4027;SDS011;2028;51.346;12.396;2023-06-22T11:02:53;7.43;;;6.73;;
4027;SDS011;2028;51.346;12.396;2023-06-22T11:05:20;7.87;;;6.60;;
4027;SDS011;2028;51.346;12.396;2023-06-22T11:07:46;7.83;;;7.23;;
4027;SDS011;2028;51.346;12.396;2023-06-22T11:10:15;7.10;;;6.40;;
4027;SDS011;2028;51.346;12.396;2023-06-22T11:12:41;6.97;;;6.30;;
4027;SDS011;2028;51.346;12.396;2023-06-22T11:15:08;6.73;;;6.23;;
4027;SDS011;2028;51.346;12.396;2023-06-22T11:17:35;10.23;;;9.07;;
4027;SDS011;2028;51.346;12.396;2023-06-22T11:20:01;9.53;;;8.73;;
4027;SDS011;2028;51.346;12.396;2023-06-22T11:22:34;6.73;;;6.13;;
4027;SDS011;2028;51.346;12.396;2023-06-22T11:25:00;7.40;;;6.70;;
4027;SDS011;2028;51.346;12.396;2023-06-22T11:27:27;7.50;;;6.67;;
4027;SDS011;2028;51.346;12.396;2023-06-22T11:29:53;7.03;;;6.53;;
4027;SDS011;2028;51.346;12.396;2023-06-22T11:32:19;7.47;;;6.67;;
4027;SDS011;2028;51.346;12.396;2023-06-22T11:34:46;9.93;;;7.50;;
4027;SDS011;2028;51.346;12.396;2023-06-22T11:37:12;7.87;;;7.17;;
4027;SDS011;2028;51.346;12.396;2023-06-22T11:39:39;9.37;;;7.10;;
4027;SDS011;2028;51.346;12.396;2023-06-22T11:42:05;7.67;;;6.93;;
4027;SDS011;2028;51.346;12.396;2023-06-22T11:44:32;7.70;;;7.10;;
4027;SDS011;2028;51.346;12.396;2023-06-22T11:46:58;6.73;;;6.23;;
4027;SDS011;2028;51.346;12.396;2023-06-22T11:49:29;8.40;;;7.63;;
4027;SDS011;2028;51.346;12.396;2023-06-22T11:51:55;8.27;;;7.50;;
4027;SDS011;2028;51.346;12.396;2023-06-22T11:54:22;7.60;;;7.03;;
4027;SDS011;2028;51.346;12.396;2023-06-22T11:56:48;7.90;;;7.17;;
4027;SDS011;2028;51.346;12.396;2023-06-22T11:59:14;12.57;;;7.50;;
4027;SDS011;2028;51.346;12.396;2023-06-22T12:01:41;7.53;;;6.83;;
4027;SDS011;2028;51.346;12.396;2023-06-22T12:04:07;8.77;;;7.37;;
4027;SDS011;2028;51.346;12.396;2023-06-22T12:06:37;9.73;;;7.57;;
4027;SDS011;2028;51.346;12.396;2023-06-22T12:09:04;7.73;;;7.13;;
4027;SDS011;2028;51.346;12.396;2023-06-22T12:11:30;7.10;;;6.60;;
4027;SDS011;2028;51.346;12.396;2023-06-22T12:13:56;7.77;;;6.93;;
4027;SDS011;2028;51.346;12.396;2023-06-22T12:16:27;34.93;;;31.90;;
4027;SDS011;2028;51.346;12.396;2023-06-22T12:18:54;8.30;;;7.60;;
4027;SDS011;2028;51.346;12.396;2023-06-22T12:21:20;8.10;;;7.30;;
4027;SDS011;2028;51.346;12.396;2023-06-22T12:23:47;8.20;;;7.50;;
4027;SDS011;2028;51.346;12.396;2023-06-22T12:26:13;10.57;;;7.43;;
4027;SDS011;2028;51.346;12.396;2023-06-22T12:28:39;7.80;;;7.00;;
4027;SDS011;2028;51.346;12.396;2023-06-22T12:31:06;10.43;;;7.27;;
4027;SDS011;2028;51.346;12.396;2023-06-22T12:33:32;7.73;;;7.13;;
4027;SDS011;2028;51.346;12.396;2023-06-22T12:35:58;7.43;;;6.73;;
4027;SDS011;2028;51.346;12.396;2023-06-22T12:38:25;7.57;;;6.97;;
4027;SDS011;2028;51.346;12.396;2023-06-22T12:40:51;8.47;;;7.70;;
4027;SDS011;2028;51.346;12.396;2023-06-22T12:43:18;7.50;;;6.87;;
4027;SDS011;2028;51.346;12.396;2023-06-22T12:45:44;7.73;;;7.13;;
4027;SDS011;2028;51.346;12.396;2023-06-22T12:48:11;8.10;;;7.40;;
4027;SDS011;2028;51.346;12.396;2023-06-22T12:50:38;10.53;;;7.70;;
4027;SDS011;2028;51.346;12.396;2023-06-22T12:53:04;8.03;;;7.40;;
4027;SDS011;2028;51.346;12.396;2023-06-22T12:55:31;8.40;;;7.60;;
4027;SDS011;2028;51.346;12.396;2023-06-22T12:57:58;8.60;;;7.80;;
4027;SDS011;2028;51.346;12.396;2023-06-22T13:00:24;8.10;;;7.40;;
4027;SDS011;2028;51.346;12.396;2023-06-22T13:02:50;7.87;;;7.27;;
4027;SDS011;2028;51.346;12.396;2023-06-22T13:05:17;8.77;;;7.97;;
4027;SDS011;2028;51.346;12.396;2023-06-22T13:07:43;10.63;;;7.87;;
4027;SDS011;2028;51.346;12.396;2023-06-22T13:10:11;9.03;;;8.13;;
4027;SDS011;2028;51.346;12.396;2023-06-22T13:12:37;31.47;;;28.57;;
4027;SDS011;2028;51.346;12.396;2023-06-22T13:15:04;10.87;;;7.73;;
4027;SDS011;2028;51.346;12.396;2023-06-22T13:17:30;8.40;;;7.60;;
4027;SDS011;2028;51.346;12.396;2023-06-22T13:19:57;10.63;;;7.83;;
4027;SDS011;2028;51.346;12.396;2023-06-22T13:25:27;8.40;;;7.37;;
4027;SDS011;2028;51.346;12.396;2023-06-22T13:27:53;9.47;;;7.20;;
4027;SDS011;2028;51.346;12.396;2023-06-22T13:30:20;8.50;;;7.60;;
4027;SDS011;2028;51.346;12.396;2023-06-22T13:32:46;11.47;;;7.77;;
4027;SDS011;2028;51.346;12.396;2023-06-22T13:35:12;8.10;;;7.50;;
4027;SDS011;2028;51.346;12.396;2023-06-22T13:37:39;7.53;;;6.93;;
4027;SDS011;2028;51.346;12.396;2023-06-22T13:40:06;8.53;;;7.93;;
4027;SDS011;2028;51.346;12.396;2023-06-22T13:42:34;8.90;;;8.10;;
4027;SDS011;2028;51.346;12.396;2023-06-22T13:45:01;10.77;;;8.03;;
4027;SDS011;2028;51.346;12.396;2023-06-22T13:47:28;8.07;;;7.47;;
4027;SDS011;2028;51.346;12.396;2023-06-22T13:49:55;7.87;;;7.13;;
4027;SDS011;2028;51.346;12.396;2023-06-22T13:52:23;10.90;;;7.63;;
4027;SDS011;2028;51.346;12.396;2023-06-22T13:54:49;8.07;;;7.27;;
4027;SDS011;2028;51.346;12.396;2023-06-22T13:57:15;8.43;;;7.73;;
4027;SDS011;2028;51.346;12.396;2023-06-22T13:59:41;8.47;;;7.67;;
4027;SDS011;2028;51.346;12.396;2023-06-22T14:02:08;8.10;;;7.50;;
4027;SDS011;2028;51.346;12.396;2023-06-22T14:04:34;9.53;;;8.37;;
4027;SDS011;2028;51.346;12.396;2023-06-22T14:07:01;8.63;;;7.83;;
4027;SDS011;2028;51.346;12.396;2023-06-22T14:09:27;8.53;;;7.83;;
4027;SDS011;2028;51.346;12.396;2023-06-22T14:11:54;8.83;;;7.37;;
4027;SDS011;2028;51.346;12.396;2023-06-22T14:14:21;9.70;;;7.17;;
4027;SDS011;2028;51.346;12.396;2023-06-22T14:16:47;8.63;;;7.83;;
4027;SDS011;2028;51.346;12.396;2023-06-22T14:19:17;7.97;;;7.27;;
4027;SDS011;2028;51.346;12.396;2023-06-22T14:21:43;8.97;;;8.20;;
4027;SDS011;2028;51.346;12.396;2023-06-22T14:24:10;9.07;;;8.13;;
4027;SDS011;2028;51.346;12.396;2023-06-22T14:26:36;8.87;;;8.07;;
4027;SDS011;2028;51.346;12.396;2023-06-22T14:29:03;9.17;;;8.03;;
4027;SDS011;2028;51.346;12.396;2023-06-22T14:31:29;9.17;;;8.37;;
4027;SDS011;2028;51.346;12.396;2023-06-22T14:33:55;9.27;;;8.37;;
4027;SDS011;2028;51.346;12.396;2023-06-22T14:36:21;13.13;;;8.40;;
4027;SDS011;2028;51.346;12.396;2023-06-22T14:38:48;8.40;;;7.80;;
4027;SDS011;2028;51.346;12.396;2023-06-22T14:41:14;8.90;;;8.10;;
4027;SDS011;2028;51.346;12.396;2023-06-22T14:43:48;8.90;;;7.87;;
4027;SDS011;2028;51.346;12.396;2023-06-22T14:46:15;9.13;;;8.23;;
4027;SDS011;2028;51.346;12.396;2023-06-22T14:48:42;9.70;;;8.60;;
4027;SDS011;2028;51.346;12.396;2023-06-22T14:51:09;8.40;;;7.70;;
4027;SDS011;2028;51.346;12.396;2023-06-22T14:53:36;8.87;;;7.83;;
4027;SDS011;2028;51.346;12.396;2023-06-22T14:56:02;9.77;;;8.57;;